createdAt,value
2019-06-26T00:01:23.365Z,42.60
2019-06-26T00:03:54.285Z,42.88
2019-06-26T00:06:25.287Z,43.25
2019-06-26T00:08:56.335Z,43.31
2019-06-26T00:11:27.251Z,43.09
2019-06-26T00:13:58.302Z,43.14
2019-06-26T00:16:29.298Z,42.94
2019-06-26T00:19:00.256Z,42.62
2019-06-26T00:21:31.221Z,43.05
2019-06-26T00:24:02.190Z,43.27
2019-06-26T00:26:33.107Z,43.43
2019-06-26T00:29:05.139Z,43.43
2019-06-26T00:31:36.058Z,43.61
2019-06-26T00:34:07.179Z,43.67
2019-06-26T00:36:38.205Z,43.79
2019-06-26T00:39:09.153Z,43.85
2019-06-26T00:41:40.135Z,44.18
2019-06-26T00:44:11.116Z,43.94
2019-06-26T00:46:42.123Z,44.10
2019-06-26T00:49:13.098Z,44.19
2019-06-26T00:51:44.014Z,44.36
2019-06-26T00:54:14.918Z,44.45
2019-06-26T00:56:45.875Z,44.39
2019-06-26T00:59:16.826Z,44.32
2019-06-26T01:01:47.825Z,44.46
2019-06-26T01:04:20.393Z,44.61
2019-06-26T01:06:51.472Z,44.53
2019-06-26T01:09:22.457Z,44.44
2019-06-26T01:11:53.540Z,44.64
2019-06-26T01:14:24.496Z,44.58
2019-06-26T01:16:55.585Z,44.83
2019-06-26T01:19:26.685Z,44.71
2019-06-26T01:21:57.836Z,44.47
2019-06-26T01:24:28.978Z,44.64
2019-06-26T01:26:59.894Z,44.88
2019-06-26T01:29:32.699Z,44.99
2019-06-26T01:32:04.018Z,44.96
2019-06-26T01:34:35.074Z,45.09
2019-06-26T01:37:08.870Z,45.43
2019-06-26T01:39:39.855Z,45.49
2019-06-26T01:42:10.960Z,45.47
2019-06-26T01:44:42.186Z,45.10
2019-06-26T01:47:13.360Z,44.76
2019-06-26T01:49:44.547Z,44.79
2019-06-26T01:52:15.540Z,45.01
2019-06-26T01:54:46.589Z,45.19
2019-06-26T01:57:17.773Z,45.65
2019-06-26T01:59:48.884Z,45.39
2019-06-26T02:02:19.795Z,45.31
2019-06-26T02:04:50.733Z,45.44
2019-06-26T02:07:21.803Z,45.35
2019-06-26T02:09:53.276Z,44.77
2019-06-26T02:12:24.433Z,42.86
2019-06-26T02:14:55.584Z,40.78
2019-06-26T02:17:26.710Z,38.75
2019-06-26T02:19:57.750Z,37.00
2019-06-26T02:22:28.894Z,35.81
2019-06-26T02:24:59.977Z,34.02
2019-06-26T02:27:31.047Z,33.44
2019-06-26T02:30:02.166Z,32.30
2019-06-26T02:32:33.259Z,31.93
2019-06-26T02:35:09.895Z,31.17
2019-06-26T02:37:38.969Z,30.19
2019-06-26T02:40:10.606Z,29.05
2019-06-26T02:42:41.716Z,28.67
2019-06-26T02:45:12.912Z,27.27
2019-06-26T02:47:43.910Z,26.56
2019-06-26T02:50:14.910Z,25.75
2019-06-26T02:52:45.988Z,25.68
2019-06-26T02:55:17.064Z,25.52
2019-06-26T02:57:48.121Z,24.73
2019-06-26T03:00:19.240Z,24.66
2019-06-26T03:02:50.163Z,24.31
2019-06-26T03:05:21.133Z,23.60
2019-06-26T03:07:53.563Z,22.89
2019-06-26T03:10:24.573Z,22.12
2019-06-26T03:12:55.489Z,21.63
2019-06-26T03:15:26.485Z,21.50
2019-06-26T03:17:57.443Z,21.30
2019-06-26T03:20:31.522Z,21.24
2019-06-26T03:23:02.527Z,20.95
2019-06-26T03:25:33.509Z,20.77
2019-06-26T03:28:04.439Z,20.96
2019-06-26T03:30:35.414Z,21.06
2019-06-26T03:33:06.409Z,20.38
2019-06-26T03:35:40.633Z,20.38
2019-06-26T03:38:10.098Z,20.33
2019-06-26T03:40:41.192Z,19.37
2019-06-26T03:43:12.110Z,18.74
2019-06-26T03:45:43.144Z,18.21
2019-06-26T03:48:14.146Z,18.43
2019-06-26T03:50:45.189Z,18.89
2019-06-26T03:53:18.660Z,17.97
2019-06-26T03:55:49.723Z,18.12
2019-06-26T03:58:20.659Z,18.56
2019-06-26T04:00:51.534Z,18.91
2019-06-26T04:03:22.535Z,18.54
2019-06-26T04:05:53.510Z,18.02
2019-06-26T04:08:24.676Z,17.64
2019-06-26T04:10:55.596Z,17.18
2019-06-26T04:13:27.244Z,17.16
2019-06-26T04:15:58.557Z,17.61
2019-06-26T04:18:29.476Z,17.89
2019-06-26T04:21:00.413Z,18.79
2019-06-26T04:23:31.451Z,19.07
2019-06-26T04:26:02.368Z,19.82
2019-06-26T04:28:33.339Z,19.47
2019-06-26T04:31:04.431Z,18.75
2019-06-26T04:33:35.354Z,18.74
2019-06-26T04:36:06.359Z,18.08
2019-06-26T04:38:37.298Z,17.95
2019-06-26T04:41:08.262Z,17.91
2019-06-26T04:43:39.349Z,18.40
2019-06-26T04:46:10.307Z,17.85
2019-06-26T04:48:41.198Z,17.73
2019-06-26T04:51:12.235Z,18.06
2019-06-26T04:53:43.326Z,17.66
2019-06-26T04:56:14.272Z,17.51
2019-06-26T04:58:45.278Z,17.68
2019-06-26T05:01:16.331Z,17.97
2019-06-26T05:03:47.259Z,17.64
2019-06-26T05:06:18.241Z,17.44
2019-06-26T05:08:49.252Z,17.79
2019-06-26T05:11:20.321Z,17.52
2019-06-26T05:13:51.269Z,17.83
2019-06-26T05:16:22.284Z,17.64
2019-06-26T05:18:54.209Z,17.97
2019-06-26T05:21:25.734Z,17.38
2019-06-26T05:23:56.798Z,16.95
2019-06-26T05:26:27.853Z,17.05
2019-06-26T05:28:58.809Z,17.24
2019-06-26T05:31:29.837Z,17.24
2019-06-26T05:34:00.894Z,17.14
2019-06-26T05:36:32.524Z,16.93
2019-06-26T05:39:04.626Z,16.56
2019-06-26T05:41:35.946Z,16.66
2019-06-26T05:44:06.991Z,16.68
2019-06-26T05:46:37.876Z,16.26
2019-06-26T05:49:08.846Z,16.50
2019-06-26T05:51:40.153Z,16.62
2019-06-26T05:54:11.191Z,17.13
2019-06-26T05:56:45.171Z,16.74
2019-06-26T05:59:14.873Z,16.67
2019-06-26T06:01:45.835Z,16.79
2019-06-26T06:04:16.850Z,16.63
2019-06-26T06:06:50.875Z,16.80
2019-06-26T06:09:23.010Z,16.74
2019-06-26T06:11:54.061Z,16.51
2019-06-26T06:14:25.068Z,16.25
2019-06-26T06:16:56.818Z,15.85
2019-06-26T06:19:27.944Z,16.41
2019-06-26T06:21:59.064Z,16.88
2019-06-26T06:24:30.142Z,16.15
2019-06-26T06:27:01.087Z,16.11
2019-06-26T06:29:33.068Z,15.69
2019-06-26T06:32:04.009Z,15.54
2019-06-26T06:34:36.604Z,15.58
2019-06-26T06:37:07.627Z,16.41
2019-06-26T06:39:38.562Z,16.29
2019-06-26T06:42:09.511Z,15.74
2019-06-26T06:44:40.524Z,15.28
2019-06-26T06:47:12.381Z,15.55
2019-06-26T06:49:43.430Z,15.55
2019-06-26T06:52:16.580Z,15.47
2019-06-26T06:54:47.201Z,15.19
2019-06-26T07:00:29.832Z,14.95
2019-06-26T07:03:03.726Z,15.38
2019-06-26T07:05:55.537Z,15.96
2019-06-26T07:08:26.663Z,15.83
2019-06-26T07:11:05.383Z,15.99
2019-06-26T07:13:37.920Z,16.09
2019-06-26T07:16:08.992Z,16.30
2019-06-26T07:18:40.045Z,16.51
2019-06-26T07:21:11.130Z,16.32
2019-06-26T07:23:42.094Z,16.58
2019-06-26T07:26:13.508Z,17.53
2019-06-26T07:28:44.740Z,16.88
2019-06-26T07:31:15.749Z,17.16
2019-06-26T07:33:46.763Z,17.22
2019-06-26T07:36:17.746Z,17.91
2019-06-26T07:38:48.701Z,19.00
2019-06-26T07:41:19.748Z,20.32
2019-06-26T07:43:50.738Z,21.06
2019-06-26T07:46:21.757Z,21.45
2019-06-26T07:48:52.687Z,21.34
2019-06-26T07:51:23.662Z,22.06
2019-06-26T07:53:54.687Z,22.32
2019-06-26T07:56:25.673Z,22.42
2019-06-26T07:58:56.732Z,23.08
2019-06-26T08:01:28.609Z,23.36
2019-06-26T08:03:59.591Z,22.44
2019-06-26T08:06:30.593Z,22.06
2019-06-26T08:09:01.588Z,22.62
2019-06-26T08:11:32.583Z,22.40
2019-06-26T08:14:03.602Z,22.19
2019-06-26T08:16:34.684Z,22.80
2019-06-26T08:19:05.704Z,23.08
2019-06-26T08:21:36.615Z,23.28
2019-06-26T08:24:07.624Z,22.94
2019-06-26T08:26:38.628Z,23.20
2019-06-26T08:29:10.506Z,23.08
2019-06-26T08:31:41.515Z,23.16
2019-06-26T08:34:12.503Z,23.24
2019-06-26T08:36:45.477Z,23.02
2019-06-26T08:39:16.498Z,22.83
2019-06-26T08:41:48.995Z,22.31
2019-06-26T08:44:20.027Z,23.07
2019-06-26T08:46:51.210Z,23.72
2019-06-26T08:49:26.080Z,24.34
2019-06-26T08:51:55.041Z,25.02
2019-06-26T08:54:26.037Z,24.04
2019-06-26T08:56:57.180Z,23.64
2019-06-26T08:59:33.383Z,23.87
2019-06-26T09:02:04.396Z,22.95
2019-06-26T09:04:35.443Z,23.03
2019-06-26T09:07:07.740Z,23.67
2019-06-26T09:09:38.763Z,23.74
2019-06-26T09:12:09.787Z,22.67
2019-06-26T09:14:43.695Z,23.43
2019-06-26T09:17:16.881Z,23.77
2019-06-26T09:19:47.757Z,23.38
2019-06-26T09:22:18.714Z,24.23
2019-06-26T09:24:49.604Z,23.22
2019-06-26T09:27:23.343Z,23.61
2019-06-26T09:29:57.170Z,23.74
2019-06-26T09:32:30.618Z,23.79
2019-06-26T09:35:01.623Z,24.15
2019-06-26T09:37:33.588Z,23.49
2019-06-26T09:40:05.662Z,23.48
2019-06-26T09:42:36.666Z,23.64
2019-06-26T09:45:08.881Z,23.13
2019-06-26T09:47:42.909Z,23.61
2019-06-26T09:50:27.108Z,23.11
2019-06-26T09:52:58.206Z,23.19
2019-06-26T09:55:32.178Z,23.67
2019-06-26T09:58:03.123Z,22.90
2019-06-26T10:00:34.361Z,23.04
2019-06-26T10:03:06.039Z,23.53
2019-06-26T10:05:36.900Z,22.80
2019-06-26T10:08:07.815Z,22.21
2019-06-26T10:10:38.951Z,22.35
2019-06-26T10:13:09.941Z,22.22
2019-06-26T10:15:40.927Z,22.85
2019-06-26T10:18:11.902Z,22.72
2019-06-26T10:20:45.028Z,22.91
2019-06-26T10:23:15.994Z,23.15
2019-06-26T10:25:47.131Z,23.58
2019-06-26T10:28:18.105Z,22.74
2019-06-26T10:30:49.115Z,22.63
2019-06-26T10:36:45.142Z,23.98
2019-06-26T10:39:23.377Z,24.18
2019-06-26T10:41:55.188Z,23.29
2019-06-26T10:44:30.305Z,23.30
2019-06-26T10:47:01.407Z,22.96
2019-06-26T10:49:32.483Z,23.26
2019-06-26T10:52:03.582Z,22.61
2019-06-26T10:54:34.515Z,22.37
2019-06-26T10:57:05.637Z,22.35
2019-06-26T10:59:36.582Z,23.18
2019-06-26T11:02:07.541Z,23.45
2019-06-26T11:04:38.621Z,23.11
2019-06-26T11:07:09.634Z,22.77
2019-06-26T11:09:40.690Z,22.19
2019-06-26T11:12:11.603Z,22.54
2019-06-26T11:14:42.602Z,22.76
2019-06-26T11:17:13.907Z,23.66
2019-06-26T11:19:44.920Z,23.61
2019-06-26T11:22:15.916Z,23.57
2019-06-26T11:24:47.177Z,24.23
2019-06-26T11:27:18.330Z,24.13
2019-06-26T11:30:01.522Z,24.03
2019-06-26T11:32:32.556Z,23.12
2019-06-26T11:35:06.709Z,22.67
2019-06-26T11:37:37.406Z,21.94
2019-06-26T11:40:08.840Z,22.04
2019-06-26T11:42:39.811Z,22.03
2019-06-26T11:45:11.174Z,21.66
2019-06-26T11:47:45.529Z,22.50
2019-06-26T11:50:15.989Z,23.26
2019-06-26T11:53:31.511Z,23.49
2019-06-26T11:56:06.023Z,23.17
2019-06-26T11:58:41.173Z,22.99
2019-06-26T12:01:12.193Z,21.75
2019-06-26T12:03:43.210Z,22.05
2019-06-26T12:06:30.772Z,21.73
2019-06-26T12:12:12.629Z,21.65
2019-06-26T12:15:00.162Z,22.13
2019-06-26T12:17:31.147Z,22.15
2019-06-26T12:20:20.136Z,21.88
2019-06-26T12:22:51.383Z,22.14
2019-06-26T12:25:38.953Z,22.03
2019-06-26T12:28:26.139Z,21.32
2019-06-26T12:31:18.120Z,21.56
2019-06-26T12:34:13.413Z,20.69
2019-06-26T12:37:00.930Z,21.38
2019-06-26T12:39:48.280Z,21.46
2019-06-26T12:42:19.287Z,21.71
2019-06-26T12:44:50.258Z,21.36
2019-06-26T12:47:37.773Z,19.93
2019-06-26T12:50:10.182Z,20.51
2019-06-26T12:52:59.273Z,20.50
2019-06-26T12:55:46.607Z,20.98
2019-06-26T12:58:34.027Z,21.22
2019-06-26T13:01:25.301Z,20.29
2019-06-26T13:04:12.930Z,20.44
2019-06-26T13:06:43.973Z,20.34
2019-06-26T13:09:17.404Z,19.70
2019-06-26T13:11:48.466Z,20.21
2019-06-26T13:14:19.520Z,20.11
2019-06-26T13:16:50.600Z,20.02
2019-06-26T13:19:21.748Z,20.43
2019-06-26T13:21:52.829Z,21.35
2019-06-26T13:24:23.876Z,21.57
2019-06-26T13:26:54.821Z,21.33
2019-06-26T13:29:26.986Z,21.18
2019-06-26T13:31:57.996Z,20.88
2019-06-26T13:34:29.038Z,21.19
2019-06-26T13:36:59.976Z,22.04
2019-06-26T13:39:30.962Z,22.12
2019-06-26T13:42:01.984Z,21.79
2019-06-26T13:44:32.868Z,21.76
2019-06-26T13:47:03.726Z,21.76
2019-06-26T13:49:34.768Z,21.88
2019-06-26T13:52:05.729Z,22.92
2019-06-26T13:54:36.723Z,22.27
2019-06-26T13:57:07.688Z,22.73
2019-06-26T13:59:39.916Z,23.59
2019-06-26T14:02:10.952Z,23.04
2019-06-26T14:04:42.223Z,23.60
2019-06-26T14:07:15.468Z,23.07
2019-06-26T14:09:46.547Z,22.62
2019-06-26T14:12:19.237Z,23.75
2019-06-26T14:14:57.437Z,23.16
2019-06-26T14:17:23.431Z,23.30
2019-06-26T14:19:54.460Z,24.28
2019-06-26T14:22:25.485Z,24.71
2019-06-26T14:24:56.381Z,23.91
2019-06-26T14:27:27.255Z,24.99
2019-06-26T14:29:58.203Z,24.42
2019-06-26T14:32:29.334Z,24.29
2019-06-26T14:35:00.377Z,24.22
2019-06-26T14:37:31.431Z,23.91
2019-06-26T14:40:02.581Z,24.43
2019-06-26T14:42:33.660Z,24.47
2019-06-26T14:45:07.164Z,23.42
2019-06-26T14:47:38.264Z,24.00
2019-06-26T14:50:10.059Z,24.71
2019-06-26T14:52:41.289Z,24.01
2019-06-26T14:55:12.559Z,24.36
2019-06-26T14:57:43.652Z,24.47
2019-06-26T15:00:16.748Z,24.45
2019-06-26T15:02:50.481Z,24.83
2019-06-26T15:05:21.724Z,25.26
2019-06-26T15:07:56.439Z,25.01
2019-06-26T15:10:27.544Z,24.84
2019-06-26T15:12:58.679Z,24.39
2019-06-26T15:15:30.591Z,23.52
2019-06-26T15:18:04.742Z,23.92
2019-06-26T15:20:41.115Z,24.50
2019-06-26T15:23:12.109Z,25.43
2019-06-26T15:25:43.278Z,25.19
2019-06-26T15:28:14.266Z,25.22
2019-06-26T15:30:45.399Z,25.50
2019-06-26T15:33:16.557Z,25.62
2019-06-26T15:35:47.573Z,24.38
2019-06-26T15:38:19.608Z,23.96
2019-06-26T15:40:50.632Z,24.08
2019-06-26T15:43:21.604Z,24.07
2019-06-26T15:45:52.634Z,24.79
2019-06-26T15:48:23.660Z,24.94
2019-06-26T15:50:56.670Z,24.58
2019-06-26T15:53:27.833Z,24.35
2019-06-26T15:55:58.915Z,24.30
2019-06-26T15:58:29.872Z,24.77
2019-06-26T16:01:00.991Z,24.60
2019-06-26T16:03:31.891Z,24.75
2019-06-26T16:06:02.919Z,24.71
2019-06-26T16:08:33.836Z,24.86
2019-06-26T16:11:04.734Z,25.39
2019-06-26T16:13:35.771Z,25.47
2019-06-26T16:16:06.847Z,25.48
2019-06-26T16:18:43.250Z,25.21
2019-06-26T16:21:14.296Z,24.88
2019-06-26T16:23:45.259Z,24.72
2019-06-26T16:26:16.324Z,24.88
2019-06-26T16:28:47.297Z,25.29
2019-06-26T16:31:18.363Z,24.77
2019-06-26T16:33:49.361Z,25.12
2019-06-26T16:36:20.299Z,25.63
2019-06-26T16:38:51.260Z,26.10
2019-06-26T16:41:22.234Z,26.51
2019-06-26T16:43:53.285Z,26.77
2019-06-26T16:46:24.201Z,26.99
2019-06-26T16:48:55.172Z,26.84
2019-06-26T16:51:26.187Z,27.11
2019-06-26T16:53:57.292Z,27.51
2019-06-26T16:56:28.393Z,28.32
2019-06-26T16:58:59.302Z,29.36
2019-06-26T17:01:30.264Z,28.87
2019-06-26T17:04:01.267Z,28.87
2019-06-26T17:06:33.407Z,29.01
2019-06-26T17:09:05.923Z,29.22
2019-06-26T17:11:36.979Z,29.41
2019-06-26T17:14:08.016Z,29.74
2019-06-26T17:16:38.960Z,29.76
2019-06-26T17:19:09.938Z,29.85
2019-06-26T17:21:40.923Z,29.78
2019-06-26T17:24:11.958Z,30.07
2019-06-26T17:26:42.916Z,30.37
2019-06-26T17:29:13.945Z,30.09
2019-06-26T17:31:44.895Z,30.10
2019-06-26T17:34:16.031Z,30.03
2019-06-26T17:36:47.082Z,29.98
2019-06-26T17:39:18.167Z,30.12
2019-06-26T17:41:49.058Z,30.18
2019-06-26T17:44:20.114Z,30.33
2019-06-26T17:46:51.093Z,30.58
2019-06-26T17:49:22.171Z,30.67
2019-06-26T17:51:53.089Z,30.74
2019-06-26T17:54:24.010Z,30.87
2019-06-26T17:56:54.991Z,30.86
2019-06-26T17:59:25.962Z,30.95
2019-06-26T18:01:56.941Z,31.07
2019-06-26T18:04:27.957Z,30.96
2019-06-26T18:06:58.961Z,31.07
2019-06-26T18:09:29.959Z,31.26
2019-06-26T18:12:01.081Z,31.43
2019-06-26T18:14:32.107Z,31.61
2019-06-26T18:17:03.128Z,31.73
2019-06-26T18:19:34.154Z,31.96
2019-06-26T18:22:05.191Z,32.03
2019-06-26T18:24:36.207Z,32.16
2019-06-26T18:27:07.255Z,32.39
2019-06-26T18:29:38.244Z,32.34
2019-06-26T18:32:09.374Z,32.47
2019-06-26T18:34:40.569Z,32.51
2019-06-26T18:37:11.683Z,32.75
2019-06-26T18:39:43.035Z,32.88
2019-06-26T18:42:16.056Z,33.15
2019-06-26T18:44:47.998Z,33.43
2019-06-26T18:47:18.999Z,34.15
2019-06-26T18:49:50.407Z,34.48
2019-06-26T18:52:21.519Z,34.93
2019-06-26T18:54:52.685Z,35.18
2019-06-26T18:57:23.787Z,35.24
2019-06-26T18:59:54.813Z,35.41
2019-06-26T19:02:25.903Z,35.31
2019-06-26T19:04:57.001Z,35.38
2019-06-26T19:07:28.068Z,35.65
2019-06-26T19:09:59.296Z,36.25
2019-06-26T19:12:30.289Z,36.38
2019-06-26T19:15:06.057Z,36.55
2019-06-26T19:17:37.091Z,36.83
2019-06-26T19:20:09.029Z,36.73
2019-06-26T19:22:40.027Z,37.21
2019-06-26T19:25:12.301Z,37.63
2019-06-26T19:27:43.381Z,38.18
2019-06-26T19:30:14.942Z,38.99
2019-06-26T19:32:46.140Z,39.43
2019-06-26T19:35:19.639Z,39.68
2019-06-26T19:37:50.149Z,39.67
2019-06-26T19:40:24.099Z,40.64
2019-06-26T19:42:55.687Z,41.42
2019-06-26T19:45:27.794Z,41.85
2019-06-26T19:47:58.947Z,42.62
2019-06-26T19:50:30.010Z,42.98
2019-06-26T19:53:01.182Z,43.17
2019-06-26T19:55:32.483Z,43.52
2019-06-26T19:58:03.662Z,44.19
2019-06-26T20:00:34.885Z,44.36
2019-06-26T20:03:06.237Z,44.59
2019-06-26T20:05:37.452Z,45.17
2019-06-26T20:08:08.666Z,45.18
2019-06-26T20:10:39.839Z,45.64
2019-06-26T20:13:11.082Z,45.89
2019-06-26T20:15:42.188Z,46.29
2019-06-26T20:18:13.275Z,46.22
2019-06-26T20:20:44.339Z,46.67
2019-06-26T20:23:15.401Z,46.30
2019-06-26T20:25:49.454Z,46.27
2019-06-26T20:28:20.742Z,46.52
2019-06-26T20:30:51.881Z,46.78
2019-06-26T20:33:23.198Z,47.29
2019-06-26T20:35:55.882Z,47.47
2019-06-26T20:38:27.092Z,47.54
2019-06-26T20:40:58.198Z,47.52
2019-06-26T20:43:29.181Z,47.62
2019-06-26T20:46:00.323Z,47.89
2019-06-26T20:48:31.486Z,48.16
2019-06-26T20:51:02.749Z,48.70
2019-06-26T20:53:34.648Z,48.81
2019-06-26T20:56:05.830Z,48.85
2019-06-26T20:58:36.955Z,48.92
2019-06-26T21:01:09.202Z,49.05
2019-06-26T21:03:40.278Z,48.96
2019-06-26T21:06:11.267Z,49.15
2019-06-26T21:08:42.401Z,49.37
2019-06-26T21:11:15.780Z,49.52
2019-06-26T21:13:46.392Z,49.71
2019-06-26T21:16:17.552Z,49.94
2019-06-26T21:18:48.734Z,49.96
2019-06-26T21:21:20.222Z,50.06
2019-06-26T21:23:51.519Z,50.01
2019-06-26T21:26:22.582Z,49.84
2019-06-26T21:28:53.695Z,49.61
2019-06-26T21:31:24.918Z,49.67
2019-06-26T21:33:56.002Z,49.90
2019-06-26T21:36:27.036Z,50.07
2019-06-26T21:38:58.170Z,50.19
2019-06-26T21:41:29.314Z,50.43
2019-06-26T21:44:00.415Z,50.63
2019-06-26T21:46:31.542Z,50.78
2019-06-26T21:49:04.227Z,50.77
2019-06-26T21:51:35.391Z,50.65
2019-06-26T21:54:06.597Z,50.39
2019-06-26T21:56:37.737Z,50.24
2019-06-26T21:59:08.837Z,50.45
2019-06-26T22:01:39.955Z,50.57
2019-06-26T22:04:11.092Z,50.82
2019-06-26T22:06:42.290Z,50.84
2019-06-26T22:09:13.383Z,50.98
2019-06-26T22:11:45.609Z,51.06
2019-06-26T22:14:16.794Z,51.28
2019-06-26T22:16:47.877Z,51.47
2019-06-26T22:19:18.998Z,52.01
2019-06-26T22:21:50.089Z,52.29
2019-06-26T22:24:21.177Z,52.33
2019-06-26T22:26:52.353Z,52.14
2019-06-26T22:29:23.570Z,52.06
2019-06-26T22:31:54.743Z,51.96
2019-06-26T22:34:26.168Z,52.14
2019-06-26T22:36:57.235Z,52.08
2019-06-26T22:39:28.299Z,52.06
2019-06-26T22:42:01.707Z,52.03
2019-06-26T22:44:32.847Z,51.95
2019-06-26T22:47:04.007Z,52.12
2019-06-26T22:49:35.358Z,52.09
2019-06-26T22:52:06.355Z,52.32
2019-06-26T22:54:37.475Z,52.45
2019-06-26T22:57:08.612Z,52.56
2019-06-26T22:59:39.552Z,52.62
2019-06-26T23:02:10.587Z,52.71
2019-06-26T23:04:41.626Z,52.77
2019-06-26T23:07:12.670Z,52.58
2019-06-26T23:09:43.664Z,52.64
2019-06-26T23:12:14.712Z,52.66
2019-06-26T23:14:45.623Z,52.63
2019-06-26T23:17:16.613Z,52.64
2019-06-26T23:19:47.820Z,52.88
2019-06-26T23:22:18.882Z,53.07
2019-06-26T23:24:50.068Z,53.10
2019-06-26T23:27:21.299Z,53.09
2019-06-26T23:29:52.389Z,53.05
2019-06-26T23:32:23.533Z,53.25
2019-06-26T23:34:54.519Z,53.53
2019-06-26T23:37:25.587Z,53.83
2019-06-26T23:39:56.524Z,54.26
2019-06-26T23:42:27.499Z,54.22
2019-06-26T23:44:58.471Z,54.23
2019-06-26T23:47:29.467Z,54.19
2019-06-26T23:50:00.509Z,54.17
2019-06-26T23:52:31.512Z,54.17
2019-06-26T23:55:02.533Z,54.28
2019-06-26T23:57:33.521Z,54.57
